createdAt,value
2023-02-14T00:02:25.015Z,11.48
2023-02-14T00:05:09.817Z,10.00
2023-02-14T00:07:55.028Z,11.65
2023-02-14T00:10:39.843Z,11.80
2023-02-14T00:13:25.035Z,12.63
2023-02-14T00:16:10.008Z,14.15
2023-02-14T00:19:04.221Z,12.30
2023-02-14T00:21:49.890Z,9.70
2023-02-14T00:24:35.002Z,12.20
2023-02-14T00:27:19.948Z,12.57
2023-02-14T00:30:06.810Z,11.05
2023-02-14T00:32:51.725Z,10.93
2023-02-14T00:35:38.542Z,10.75
2023-02-14T00:38:23.466Z,11.07
2023-02-14T00:41:08.442Z,13.63
2023-02-14T00:43:55.097Z,12.02
2023-02-14T00:46:40.643Z,11.20
2023-02-14T00:49:25.857Z,14.43
2023-02-14T00:52:10.669Z,11.55
2023-02-14T00:54:56.150Z,13.63
2023-02-14T00:57:41.285Z,14.45
2023-02-14T01:00:26.449Z,12.70
2023-02-14T01:03:11.321Z,12.02
2023-02-14T01:05:56.584Z,11.70
2023-02-14T01:08:41.706Z,11.77
2023-02-14T01:11:29.307Z,11.90
2023-02-14T01:14:15.615Z,11.98
2023-02-14T01:17:00.590Z,10.95
2023-02-14T01:19:45.747Z,11.25
2023-02-14T01:22:35.728Z,9.87
2023-02-14T01:25:20.621Z,10.25
2023-02-14T01:28:06.799Z,10.57
2023-02-14T01:30:51.878Z,12.75
2023-02-14T01:33:37.802Z,10.77
2023-02-14T01:36:36.211Z,15.90
2023-02-14T01:39:21.136Z,11.25
2023-02-14T01:42:06.088Z,11.05
2023-02-14T01:44:55.730Z,11.52
2023-02-14T01:47:44.004Z,10.43
2023-02-14T01:50:36.125Z,10.77
2023-02-14T01:53:28.715Z,11.38
2023-02-14T01:56:19.681Z,10.52
2023-02-14T01:59:09.642Z,9.50
2023-02-14T02:01:55.233Z,10.55
2023-02-14T02:04:44.696Z,11.40
2023-02-14T02:07:29.925Z,10.38
2023-02-14T02:10:14.866Z,13.93
2023-02-14T02:13:05.757Z,12.50
2023-02-14T02:15:56.521Z,12.73
2023-02-14T02:19:01.946Z,13.07
2023-02-14T02:22:18.378Z,11.50
2023-02-14T02:25:15.774Z,9.90
2023-02-14T02:28:03.757Z,12.35
2023-02-14T02:31:22.522Z,12.27
2023-02-14T02:34:27.661Z,13.10
2023-02-14T02:37:57.553Z,12.52
2023-02-14T02:40:54.162Z,10.43
2023-02-14T02:44:09.118Z,11.15
2023-02-14T02:47:28.692Z,10.05
2023-02-14T02:50:39.297Z,13.40
2023-02-14T02:53:29.154Z,11.52
2023-02-14T02:56:43.860Z,10.07
2023-02-14T02:59:36.993Z,12.38
2023-02-14T03:02:30.499Z,10.98
2023-02-14T03:05:15.539Z,12.67
2023-02-14T03:08:00.696Z,10.05
2023-02-14T03:10:45.516Z,11.38
2023-02-14T03:14:06.308Z,12.57
2023-02-14T03:17:04.766Z,10.52
2023-02-14T03:20:15.079Z,13.00
2023-02-14T03:23:29.727Z,12.05
2023-02-14T03:26:18.499Z,11.40
2023-02-14T03:29:27.602Z,10.43
2023-02-14T03:32:27.238Z,10.50
2023-02-14T03:35:20.889Z,13.60
2023-02-14T03:38:19.897Z,9.27
2023-02-14T03:41:10.256Z,9.95
2023-02-14T03:44:02.791Z,12.35
2023-02-14T03:46:55.896Z,11.30
2023-02-14T03:49:46.839Z,11.00
2023-02-14T03:52:34.379Z,9.95
2023-02-14T03:55:31.738Z,10.48
2023-02-14T03:58:24.401Z,12.25
2023-02-14T04:01:27.995Z,11.27
2023-02-14T04:04:17.784Z,12.37
2023-02-14T04:07:23.140Z,11.60
2023-02-14T04:10:08.399Z,15.20
2023-02-14T04:12:54.099Z,11.40
2023-02-14T04:15:39.007Z,13.90
2023-02-14T04:18:42.868Z,12.73
2023-02-14T04:21:27.894Z,9.95
2023-02-14T04:24:12.578Z,9.77
2023-02-14T04:27:09.921Z,12.57
2023-02-14T04:29:55.149Z,11.10
2023-02-14T04:32:41.402Z,11.23
2023-02-14T04:35:26.494Z,15.02
2023-02-14T04:38:11.491Z,13.00
2023-02-14T04:40:56.319Z,11.00
2023-02-14T04:43:41.170Z,10.73
2023-02-14T04:46:26.345Z,11.43
2023-02-14T04:49:11.181Z,11.35
2023-02-14T04:51:57.234Z,11.25
2023-02-14T04:54:42.414Z,10.30
2023-02-14T04:57:27.357Z,10.98
2023-02-14T05:00:12.845Z,14.60
2023-02-14T05:02:57.526Z,9.60
2023-02-14T05:05:42.274Z,11.02
2023-02-14T05:08:27.498Z,10.57
2023-02-14T05:11:12.421Z,10.55
2023-02-14T05:13:57.553Z,11.80
2023-02-14T05:16:42.330Z,11.30
2023-02-14T05:19:27.282Z,11.10
2023-02-14T05:22:12.046Z,9.43
2023-02-14T05:24:57.281Z,12.77
2023-02-14T05:27:42.288Z,9.80
2023-02-14T05:30:28.885Z,13.35
2023-02-14T05:33:14.011Z,12.02
2023-02-14T05:36:00.877Z,10.80
2023-02-14T05:38:47.019Z,10.80
2023-02-14T05:41:32.185Z,11.83
2023-02-14T05:44:17.051Z,13.70
2023-02-14T05:47:01.998Z,13.30
2023-02-14T05:49:46.774Z,10.18
2023-02-14T05:52:31.841Z,10.80
2023-02-14T05:55:16.993Z,10.70
2023-02-14T05:58:02.224Z,12.35
2023-02-14T06:00:47.028Z,14.05
2023-02-14T06:03:32.190Z,13.98
2023-02-14T06:06:17.240Z,12.55
2023-02-14T06:09:02.726Z,12.83
2023-02-14T06:11:47.947Z,12.98
2023-02-14T06:14:32.905Z,12.23
2023-02-14T06:17:17.638Z,12.18
2023-02-14T06:20:03.885Z,11.43
2023-02-14T06:22:48.920Z,13.73
2023-02-14T06:25:34.759Z,12.15
2023-02-14T06:28:20.062Z,10.90
2023-02-14T06:31:05.332Z,11.13
2023-02-14T06:33:50.383Z,12.52
2023-02-14T06:36:35.607Z,12.33
2023-02-14T06:39:20.630Z,12.43
2023-02-14T06:42:05.783Z,12.10
2023-02-14T06:44:50.636Z,15.50
2023-02-14T06:47:35.712Z,17.38
2023-02-14T06:50:20.730Z,20.20
2023-02-14T06:53:06.187Z,13.85
2023-02-14T06:55:51.422Z,13.80
2023-02-14T06:58:36.463Z,13.95
2023-02-14T07:01:21.527Z,14.88
2023-02-14T07:04:06.297Z,18.33
2023-02-14T07:06:51.515Z,13.45
2023-02-14T07:09:36.373Z,14.93
2023-02-14T07:12:21.536Z,15.20
2023-02-14T07:15:11.128Z,16.05
2023-02-14T07:17:56.241Z,13.47
2023-02-14T07:20:41.010Z,13.48
2023-02-14T07:23:26.122Z,18.75
2023-02-14T07:26:11.221Z,18.80
2023-02-14T07:28:56.246Z,15.77
2023-02-14T07:31:41.186Z,16.27
2023-02-14T07:34:27.226Z,18.92
2023-02-14T07:37:11.980Z,16.33
2023-02-14T07:39:57.063Z,19.38
2023-02-14T07:42:43.311Z,16.92
2023-02-14T07:45:28.592Z,17.90
2023-02-14T07:48:13.608Z,21.10
2023-02-14T07:50:59.378Z,20.42
2023-02-14T07:53:44.659Z,20.05
2023-02-14T07:56:29.662Z,22.90
2023-02-14T07:59:14.573Z,19.00
2023-02-14T08:01:59.925Z,25.05
2023-02-14T08:04:44.728Z,25.23
2023-02-14T08:07:29.981Z,24.58
2023-02-14T08:10:15.157Z,23.73
2023-02-14T08:13:00.401Z,21.10
2023-02-14T08:16:04.141Z,23.77
2023-02-14T08:18:49.250Z,24.23
2023-02-14T08:21:34.361Z,20.70
2023-02-14T08:24:19.433Z,25.10
2023-02-14T08:27:04.658Z,21.40
2023-02-14T08:29:49.416Z,28.55
2023-02-14T08:32:34.781Z,24.67
2023-02-14T08:35:20.008Z,23.35
2023-02-14T08:38:05.432Z,24.10
2023-02-14T08:40:50.943Z,19.07
2023-02-14T08:43:36.151Z,24.15
2023-02-14T08:46:21.503Z,25.40
2023-02-14T08:49:06.703Z,24.52
2023-02-14T08:51:51.890Z,25.20
2023-02-14T08:54:37.094Z,17.43
2023-02-14T08:57:21.981Z,22.95
2023-02-14T09:00:08.350Z,25.23
2023-02-14T09:02:53.800Z,26.80
2023-02-14T09:05:39.015Z,21.38
2023-02-14T09:08:23.874Z,16.93
2023-02-14T09:11:14.053Z,26.67
2023-02-14T09:13:59.105Z,14.20
2023-02-14T09:16:44.439Z,7.20
2023-02-14T09:19:29.393Z,13.93
2023-02-14T09:22:14.365Z,21.37
2023-02-14T09:24:59.998Z,22.30
2023-02-14T09:27:44.888Z,19.38
2023-02-14T09:30:30.047Z,24.52
2023-02-14T09:33:14.869Z,25.58
2023-02-14T09:36:18.619Z,13.53
2023-02-14T09:39:04.041Z,17.60
2023-02-14T09:42:06.047Z,23.10
2023-02-14T09:45:00.314Z,22.75
2023-02-14T09:47:45.280Z,21.05
2023-02-14T09:50:52.972Z,23.07
2023-02-14T09:53:52.638Z,21.80
2023-02-14T09:56:51.357Z,22.88
2023-02-14T09:59:49.455Z,23.17
2023-02-14T10:02:40.633Z,20.15
2023-02-14T10:05:47.413Z,22.77
2023-02-14T10:08:54.167Z,23.10
2023-02-14T10:11:43.245Z,20.20
2023-02-14T10:14:40.205Z,23.55
2023-02-14T10:17:30.886Z,25.52
2023-02-14T10:20:41.438Z,22.73
2023-02-14T10:23:41.041Z,21.05
2023-02-14T10:26:39.831Z,22.67
2023-02-14T10:29:25.223Z,19.02
2023-02-14T10:32:14.790Z,20.02
2023-02-14T10:35:05.510Z,18.53
2023-02-14T10:38:05.167Z,22.10
2023-02-14T10:41:21.001Z,25.02
2023-02-14T10:44:19.686Z,25.00
2023-02-14T10:47:26.202Z,20.85
2023-02-14T10:50:20.684Z,19.63
2023-02-14T10:53:41.657Z,19.33
2023-02-14T10:56:34.507Z,20.17
2023-02-14T10:59:27.596Z,15.65
2023-02-14T11:02:15.938Z,23.48
2023-02-14T11:05:03.485Z,22.30
2023-02-14T11:07:49.253Z,20.73
2023-02-14T11:10:35.575Z,18.90
2023-02-14T11:13:35.739Z,20.02
2023-02-14T11:16:31.411Z,22.58
2023-02-14T11:19:16.170Z,18.97
2023-02-14T11:22:02.648Z,20.75
2023-02-14T11:24:48.296Z,19.80
2023-02-14T11:27:33.589Z,20.08
2023-02-14T11:30:31.288Z,18.25
2023-02-14T11:33:42.417Z,24.03
2023-02-14T11:36:30.393Z,20.95
2023-02-14T11:39:34.555Z,20.38
2023-02-14T11:42:34.193Z,27.95
2023-02-14T11:45:35.644Z,26.55
2023-02-14T11:48:37.739Z,26.10
2023-02-14T11:51:47.849Z,23.60
2023-02-14T11:54:39.153Z,28.02
2023-02-14T11:57:28.868Z,29.05
2023-02-14T12:00:17.365Z,29.23
2023-02-14T12:03:05.612Z,26.80
2023-02-14T12:05:53.843Z,24.80
2023-02-14T12:08:41.805Z,21.60
2023-02-14T12:11:28.868Z,22.05
2023-02-14T12:14:22.470Z,23.33
2023-02-14T12:17:31.544Z,19.00
2023-02-14T12:20:35.482Z,21.88
2023-02-14T12:23:42.313Z,19.45
2023-02-14T12:26:38.833Z,18.08
2023-02-14T12:29:33.066Z,18.65
2023-02-14T12:32:24.749Z,17.97
2023-02-14T12:35:17.652Z,19.25
2023-02-14T12:38:21.051Z,17.95
2023-02-14T12:41:34.651Z,21.00
2023-02-14T12:44:32.382Z,17.67
2023-02-14T12:47:24.778Z,20.87
2023-02-14T12:50:23.430Z,18.15
2023-02-14T12:53:39.036Z,11.40
2023-02-14T12:56:45.746Z,10.43
2023-02-14T12:59:38.497Z,18.45
2023-02-14T13:02:56.849Z,17.23
2023-02-14T13:05:54.718Z,19.50
2023-02-14T13:09:01.241Z,15.60
2023-02-14T13:12:11.801Z,15.75
2023-02-14T13:15:03.270Z,17.70
2023-02-14T13:17:58.707Z,15.57
2023-02-14T13:20:59.240Z,17.50
2023-02-14T13:23:52.772Z,17.70
2023-02-14T13:26:41.752Z,17.10
2023-02-14T13:29:33.107Z,13.05
2023-02-14T13:32:22.599Z,16.17
2023-02-14T13:35:08.319Z,17.17
2023-02-14T13:37:57.629Z,16.35
2023-02-14T13:40:42.964Z,14.35
2023-02-14T13:43:49.547Z,16.27
2023-02-14T13:46:34.479Z,17.47
2023-02-14T13:49:31.784Z,14.77
2023-02-14T13:52:43.816Z,16.92
2023-02-14T13:55:35.393Z,14.18
2023-02-14T13:58:24.072Z,15.52
2023-02-14T14:01:32.788Z,16.70
2023-02-14T14:04:27.862Z,13.88
2023-02-14T14:07:13.366Z,13.63
2023-02-14T14:10:01.562Z,13.85
2023-02-14T14:12:46.401Z,17.23
2023-02-14T14:15:31.202Z,13.63
2023-02-14T14:18:15.955Z,16.83
2023-02-14T14:21:14.060Z,18.55
2023-02-14T14:24:20.803Z,13.77
2023-02-14T14:27:17.483Z,14.27
2023-02-14T14:30:17.707Z,14.17
2023-02-14T14:33:14.417Z,17.80
2023-02-14T14:36:04.039Z,14.75
2023-02-14T14:38:53.457Z,17.42
2023-02-14T14:41:40.398Z,16.90
2023-02-14T14:44:25.577Z,17.00
2023-02-14T14:47:17.549Z,16.85
2023-02-14T14:50:13.309Z,15.38
2023-02-14T14:53:09.336Z,16.40
2023-02-14T14:55:55.517Z,12.93
2023-02-14T14:58:41.697Z,15.43
2023-02-14T15:01:36.825Z,13.77
2023-02-14T15:04:29.366Z,11.27
2023-02-14T15:07:20.791Z,8.77
2023-02-14T15:10:22.026Z,14.35
2023-02-14T15:13:31.231Z,17.30
2023-02-14T15:16:23.193Z,15.57
2023-02-14T15:19:12.567Z,17.63
2023-02-14T15:21:57.509Z,14.35
2023-02-14T15:24:42.619Z,17.05
2023-02-14T15:27:28.367Z,12.23
2023-02-14T15:30:22.003Z,12.32
2023-02-14T15:33:07.755Z,15.55
2023-02-14T15:35:53.284Z,14.15
2023-02-14T15:38:41.602Z,15.98
2023-02-14T15:41:27.180Z,15.33
2023-02-14T15:44:19.899Z,14.30
2023-02-14T15:47:05.803Z,13.73
2023-02-14T15:49:50.662Z,15.10
2023-02-14T15:52:40.496Z,14.82
2023-02-14T15:55:26.850Z,10.83
2023-02-14T15:58:20.442Z,15.52
2023-02-14T16:01:06.766Z,17.48
2023-02-14T16:03:58.577Z,12.38
2023-02-14T16:06:46.807Z,9.50
2023-02-14T16:09:37.594Z,16.10
2023-02-14T16:12:32.165Z,17.58
2023-02-14T16:15:21.451Z,16.42
2023-02-14T16:18:37.682Z,12.05
2023-02-14T16:21:28.221Z,13.68
2023-02-14T16:24:13.654Z,17.17
2023-02-14T16:26:58.724Z,17.15
2023-02-14T16:29:43.762Z,16.80
2023-02-14T16:32:30.164Z,12.98
2023-02-14T16:35:19.904Z,15.50
2023-02-14T16:38:05.121Z,14.07
2023-02-14T16:40:54.145Z,16.02
2023-02-14T16:43:38.998Z,17.02
2023-02-14T16:46:28.976Z,14.68
2023-02-14T16:49:14.192Z,16.35
2023-02-14T16:51:59.401Z,14.63
2023-02-14T16:54:44.366Z,16.77
2023-02-14T16:57:33.672Z,16.92
2023-02-14T17:00:19.323Z,16.10
2023-02-14T17:03:06.182Z,15.35
2023-02-14T17:05:51.337Z,14.70
2023-02-14T17:08:38.886Z,19.00
2023-02-14T17:11:25.165Z,18.00
2023-02-14T17:14:14.200Z,15.57
2023-02-14T17:16:59.601Z,18.52
2023-02-14T17:19:44.513Z,14.37
2023-02-14T17:22:29.702Z,16.73
2023-02-14T17:25:14.539Z,17.48
2023-02-14T17:28:00.933Z,16.83
2023-02-14T17:30:47.404Z,17.77
2023-02-14T17:33:33.239Z,18.37
2023-02-14T17:36:18.153Z,16.30
2023-02-14T17:39:05.441Z,18.17
2023-02-14T17:41:50.491Z,14.80
2023-02-14T17:44:37.337Z,14.55
2023-02-14T17:47:22.534Z,17.27
2023-02-14T17:50:08.027Z,21.77
2023-02-14T17:52:56.531Z,13.38
2023-02-14T17:55:41.636Z,14.07
2023-02-14T17:58:26.777Z,15.27
2023-02-14T18:01:12.644Z,19.27
2023-02-14T18:03:57.621Z,16.58
2023-02-14T18:06:43.039Z,20.60
2023-02-14T18:09:28.201Z,18.63
2023-02-14T18:12:15.055Z,20.52
2023-02-14T18:15:00.499Z,17.13
2023-02-14T18:17:49.993Z,15.35
2023-02-14T18:20:35.287Z,21.65
2023-02-14T18:23:21.075Z,15.75
2023-02-14T18:26:10.022Z,18.67
2023-02-14T18:28:54.910Z,15.40
2023-02-14T18:31:42.186Z,22.45
2023-02-14T18:34:28.008Z,18.23
2023-02-14T18:37:13.818Z,16.67
2023-02-14T18:39:58.708Z,18.00
2023-02-14T18:42:43.435Z,17.60
2023-02-14T18:45:28.726Z,18.02
2023-02-14T18:48:13.565Z,19.73
2023-02-14T18:51:29.696Z,18.35
2023-02-14T18:54:14.707Z,19.40
2023-02-14T18:56:59.674Z,19.13
2023-02-14T18:59:45.010Z,16.85
2023-02-14T19:02:30.416Z,20.48
2023-02-14T19:05:15.159Z,22.90
2023-02-14T19:08:00.569Z,16.38
2023-02-14T19:10:45.583Z,19.60
2023-02-14T19:13:32.101Z,23.08
2023-02-14T19:16:20.197Z,21.27
2023-02-14T19:19:05.568Z,20.00
2023-02-14T19:21:50.804Z,21.15
2023-02-14T19:24:36.167Z,20.93
2023-02-14T19:27:22.319Z,21.40
2023-02-14T19:30:07.716Z,22.42
2023-02-14T19:32:52.866Z,17.88
2023-02-14T19:35:38.040Z,24.05
2023-02-14T19:38:23.364Z,19.37
2023-02-14T19:41:16.554Z,21.38
2023-02-14T19:44:04.518Z,20.70
2023-02-14T19:46:49.903Z,23.17
2023-02-14T19:49:35.565Z,20.55
2023-02-14T19:52:27.712Z,22.03
2023-02-14T19:55:21.595Z,24.73
2023-02-14T19:58:06.806Z,20.77
2023-02-14T20:00:59.052Z,22.88
2023-02-14T20:03:44.737Z,20.98
2023-02-14T20:06:29.752Z,21.53
2023-02-14T20:09:16.024Z,25.17
2023-02-14T20:12:01.509Z,24.40
2023-02-14T20:14:51.457Z,21.77
2023-02-14T20:17:36.664Z,20.30
2023-02-14T20:20:21.652Z,21.63
2023-02-14T20:23:06.843Z,24.27
2023-02-14T20:25:51.973Z,21.48
2023-02-14T20:28:36.847Z,26.35
2023-02-14T20:31:21.879Z,24.77
2023-02-14T20:34:07.296Z,22.47
2023-02-14T20:36:55.973Z,20.50
2023-02-14T20:39:41.369Z,20.15
2023-02-14T20:42:26.670Z,20.88
2023-02-14T20:45:11.517Z,22.80
2023-02-14T20:47:56.636Z,20.83
2023-02-14T20:50:41.606Z,20.98
2023-02-14T20:53:27.185Z,19.58
2023-02-14T20:56:13.550Z,24.52
2023-02-14T20:59:01.949Z,22.85
2023-02-14T21:01:46.974Z,21.77
2023-02-14T21:04:32.179Z,21.73
2023-02-14T21:07:17.457Z,21.50
2023-02-14T21:10:02.699Z,20.92
2023-02-14T21:12:48.373Z,22.00
2023-02-14T21:15:33.462Z,21.77
2023-02-14T21:18:18.352Z,23.75
2023-02-14T21:21:12.028Z,24.00
2023-02-14T21:23:57.098Z,17.70
2023-02-14T21:26:43.055Z,23.73
2023-02-14T21:29:27.850Z,21.90
2023-02-14T21:32:13.171Z,19.92
2023-02-14T21:34:58.285Z,27.80
2023-02-14T21:37:43.378Z,23.63
2023-02-14T21:40:28.281Z,26.58
2023-02-14T21:43:13.189Z,23.50
2023-02-14T21:46:02.004Z,20.88
2023-02-14T21:49:05.754Z,14.80
2023-02-14T21:51:50.851Z,17.80
2023-02-14T21:54:35.740Z,21.67
2023-02-14T21:57:20.560Z,19.87
2023-02-14T22:00:06.507Z,22.08
2023-02-14T22:02:52.505Z,20.67
2023-02-14T22:05:37.149Z,18.13
2023-02-14T22:08:22.054Z,18.70
2023-02-14T22:11:12.687Z,22.30
2023-02-14T22:13:57.528Z,20.25
2023-02-14T22:16:42.493Z,21.60
2023-02-14T22:19:28.021Z,22.40
2023-02-14T22:22:12.937Z,18.63
2023-02-14T22:24:58.022Z,16.73
2023-02-14T22:27:42.956Z,24.38
2023-02-14T22:30:28.205Z,24.58
2023-02-14T22:33:13.128Z,20.42
2023-02-14T22:35:59.804Z,22.48
2023-02-14T22:38:45.078Z,27.27
2023-02-14T22:41:30.249Z,24.48
2023-02-14T22:44:15.126Z,24.58
2023-02-14T22:47:01.286Z,23.02
2023-02-14T22:49:46.373Z,24.98
2023-02-14T22:52:31.418Z,22.50
2023-02-14T22:55:16.232Z,26.33
2023-02-14T22:58:01.341Z,22.75
2023-02-14T23:00:46.217Z,25.23
2023-02-14T23:03:31.608Z,22.05
2023-02-14T23:06:16.741Z,24.50
2023-02-14T23:09:03.553Z,24.65
2023-02-14T23:11:49.062Z,23.45
2023-02-14T23:14:52.568Z,24.48
2023-02-14T23:17:56.359Z,24.33
2023-02-14T23:21:00.284Z,21.50
2023-02-14T23:23:45.390Z,23.60
2023-02-14T23:26:30.318Z,21.75
2023-02-14T23:29:15.438Z,25.52
2023-02-14T23:32:00.296Z,24.80
2023-02-14T23:34:45.746Z,25.20
2023-02-14T23:37:30.769Z,24.48
2023-02-14T23:40:16.070Z,25.77
2023-02-14T23:43:01.084Z,25.23
2023-02-14T23:45:45.922Z,26.17
2023-02-14T23:48:31.005Z,23.53
2023-02-14T23:51:15.667Z,23.15
2023-02-14T23:54:01.457Z,27.88
2023-02-14T23:56:46.218Z,24.15
2023-02-14T23:59:31.743Z,21.45
